Isla Nueva, Argentina
Current Conditions -  °F | °C
As of 2:00 PM on Sunday 25 Jan 2015 (Local Time) from SAWH Reporting Station
Broken Clouds Broken Clouds  
Wind Chill: 11°   Ceiling: 5000
Heat Index: 11°   Visibility: 6mi
Dew Point: -1°   Wind: 5mph
Humidity: 44%   Direction: 230°SW
Pressure: 29.62"   Gusts: NA
Location:  55.25°S, 66.49°W
Report Text: SAWH 251700Z 23004KT 9999 BKN050 SCT10011/M01 Q1003
Loading
Personal Weather Stations






























Interactive Weather Map New forecast layout! Learn more

10-Day Weather Forecast

Advertisements
Track Severe Weather on mobile